Time;durP1;ratioP1;P1;durP2;ratioP2;P2;SDS_P1;SDS_P2;PMS_P1;PMS_P2;Temp;Humidity;BMP_temperature;BMP_pressure;BME280_temperature;BME280_humidity;BME280_pressure;Samples;Min_cycle;Max_cycle;Signal;HPM_P1;HPM_P2
2022/04/30 00:02:06;;;;;;;6.78;4.03;;;12.80;62.10;;;;;;5053519;28;20461;-75
2022/04/30 00:04:35;;;;;;;4.57;3.80;;;12.80;62.30;;;;;;5035689;28;20606;-74
2022/04/30 00:07:01;;;;;;;4.88;4.15;;;12.80;62.20;;;;;;5023906;28;20078;-73
2022/04/30 00:09:27;;;;;;;4.55;3.85;;;12.80;62.40;;;;;;5028800;28;20064;-74
2022/04/30 00:11:53;;;;;;;5.00;4.22;;;12.80;62.60;;;;;;5032249;28;20033;-74
2022/04/30 00:14:18;;;;;;;4.18;3.75;;;12.70;62.60;;;;;;5057651;28;20512;-74
2022/04/30 00:16:44;;;;;;;5.47;4.57;;;12.70;62.70;;;;;;5022794;28;20043;-73
2022/04/30 00:19:10;;;;;;;4.80;4.25;;;12.70;62.80;;;;;;4997941;28;20600;-74
2022/04/30 00:21:35;;;;;;;4.07;3.55;;;12.70;62.80;;;;;;5053718;28;20119;-73
2022/04/30 00:24:01;;;;;;;9.45;4.72;;;12.70;63.00;;;;;;5027193;28;20037;-73
2022/04/30 00:26:27;;;;;;;7.15;4.10;;;12.70;63.00;;;;;;5015126;28;20056;-73
2022/04/30 00:28:53;;;;;;;5.90;3.80;;;12.60;63.10;;;;;;5054399;28;20129;-73
2022/04/30 00:31:18;;;;;;;4.45;4.00;;;12.60;63.10;;;;;;5012679;28;20138;-75
2022/04/30 00:33:48;;;;;;;7.05;4.05;;;12.60;63.10;;;;;;5053213;28;20055;-74
2022/04/30 00:36:14;;;;;;;5.53;4.28;;;12.60;63.20;;;;;;5029579;28;20040;-73
2022/04/30 00:38:40;;;;;;;5.50;4.20;;;12.60;63.20;;;;;;5023829;28;20037;-74
2022/04/30 00:41:09;;;;;;;4.88;4.03;;;12.60;63.30;;;;;;5027131;28;20035;-73
2022/04/30 00:43:43;;;;;;;6.03;4.20;;;12.50;63.40;;;;;;5033338;28;20037;-73
2022/04/30 00:46:13;;;;;;;5.93;4.20;;;12.50;63.60;;;;;;5042666;28;20033;-73
2022/04/30 00:48:38;;;;;;;4.30;3.88;;;12.50;63.60;;;;;;5018423;28;20040;-74
2022/04/30 00:51:06;;;;;;;4.18;3.67;;;12.50;63.60;;;;;;5028320;28;20135;-73
2022/04/30 00:53:32;;;;;;;4.88;3.95;;;12.50;63.60;;;;;;5017764;28;20033;-74
2022/04/30 00:55:57;;;;;;;6.15;3.95;;;12.40;63.70;;;;;;5040339;28;20029;-73
2022/04/30 00:58:23;;;;;;;5.13;4.13;;;12.40;63.70;;;;;;5044414;28;20039;-73
2022/04/30 01:00:49;;;;;;;5.78;4.78;;;12.40;63.80;;;;;;5044635;28;20037;-73
2022/04/30 01:03:14;;;;;;;6.03;4.95;;;12.40;63.90;;;;;;5040149;28;20033;-74
2022/04/30 01:05:40;;;;;;;7.00;4.68;;;12.40;64.00;;;;;;5037018;28;20524;-74
2022/04/30 01:08:05;;;;;;;6.22;4.80;;;12.30;64.00;;;;;;5024488;28;20040;-73
2022/04/30 01:10:32;;;;;;;4.63;4.22;;;12.30;64.20;;;;;;5047004;28;20082;-74
2022/04/30 01:12:58;;;;;;;6.20;4.47;;;12.30;64.30;;;;;;4998333;28;20045;-74
2022/04/30 01:15:24;;;;;;;5.65;4.28;;;12.30;64.30;;;;;;4996529;28;20036;-73
2022/04/30 01:17:49;;;;;;;7.40;4.63;;;12.30;64.40;;;;;;5006543;28;20037;-73
2022/04/30 01:20:15;;;;;;;6.53;4.35;;;12.20;64.40;;;;;;5035242;28;20124;-73
2022/04/30 01:22:57;;;;;;;5.78;4.35;;;12.20;64.50;;;;;;5024016;28;20083;-73
2022/04/30 01:25:23;;;;;;;5.53;4.10;;;12.20;64.80;;;;;;5020246;28;20106;-72
2022/04/30 01:27:49;;;;;;;7.88;4.45;;;12.20;64.60;;;;;;5026261;28;20119;-73
2022/04/30 01:30:16;;;;;;;5.53;4.25;;;12.20;64.70;;;;;;5046408;28;22486;-74
2022/04/30 01:38:15;;;;;;;6.10;4.25;;;12.20;65.00;;;;;;5019843;28;20086;-74
2022/04/30 01:40:41;;;;;;;9.70;4.68;;;12.10;64.90;;;;;;5039968;28;20033;-74
2022/04/30 01:43:08;;;;;;;5.78;4.05;;;12.10;64.90;;;;;;5047530;28;20132;-73
2022/04/30 01:45:34;;;;;;;5.68;4.32;;;12.10;65.10;;;;;;5031614;28;20044;-75
2022/04/30 01:48:00;;;;;;;7.60;4.35;;;12.10;65.30;;;;;;5050399;28;20036;-74
2022/04/30 01:50:26;;;;;;;6.10;4.20;;;12.10;65.20;;;;;;5048347;28;20040;-74
2022/04/30 01:52:52;;;;;;;6.72;4.60;;;12.00;65.30;;;;;;5048057;28;20039;-74
2022/04/30 01:55:17;;;;;;;5.53;4.18;;;12.00;65.40;;;;;;5065797;28;20033;-73
2022/04/30 01:57:43;;;;;;;6.88;4.53;;;12.00;65.40;;;;;;5023459;28;20530;-73
2022/04/30 02:00:09;;;;;;;5.93;4.38;;;12.00;65.60;;;;;;5011987;28;20041;-72
2022/04/30 02:02:35;;;;;;;6.40;4.95;;;12.00;65.60;;;;;;5030097;28;20601;-74
2022/04/30 02:05:03;;;;;;;5.43;4.32;;;12.00;65.70;;;;;;5016330;28;20068;-73
2022/04/30 02:07:29;;;;;;;5.68;4.80;;;12.00;65.80;;;;;;5014781;28;20049;-74
2022/04/30 02:09:56;;;;;;;6.38;5.10;;;12.00;65.90;;;;;;5024832;28;20059;-74
2022/04/30 02:12:21;;;;;;;7.50;5.10;;;12.00;66.00;;;;;;5031406;28;20140;-74
2022/04/30 02:14:53;;;;;;;7.53;5.43;;;11.90;65.90;;;;;;5029729;28;20533;-74
2022/04/30 02:17:20;;;;;;;5.90;5.10;;;12.00;66.50;;;;;;5056364;28;20501;-73
2022/04/30 02:22:30;;;;;;;5.78;5.07;;;11.90;66.50;;;;;;5047330;28;20043;-73
2022/04/30 02:24:57;;;;;;;6.18;4.70;;;11.90;66.50;;;;;;5030027;28;20047;-74
2022/04/30 02:27:23;;;;;;;6.07;4.97;;;11.90;66.80;;;;;;5026770;28;20151;-73
2022/04/30 02:29:48;;;;;;;5.70;5.00;;;11.90;66.70;;;;;;5036679;28;20096;-74
2022/04/30 02:32:14;;;;;;;7.72;5.05;;;11.90;66.80;;;;;;4990581;28;20762;-74
2022/04/30 02:34:39;;;;;;;4.95;4.28;;;11.90;66.90;;;;;;5042497;28;20844;-73
2022/04/30 02:37:05;;;;;;;9.30;4.65;;;11.90;67.00;;;;;;5059512;28;20160;-74
2022/04/30 02:39:31;;;;;;;6.32;4.70;;;11.80;67.20;;;;;;5029137;28;20033;-74
2022/04/30 02:41:57;;;;;;;8.30;4.53;;;11.90;67.20;;;;;;5038489;28;20041;-73
2022/04/30 02:44:26;;;;;;;8.45;5.00;;;11.90;67.10;;;;;;5029890;28;20521;-74
2022/04/30 02:46:55;;;;;;;6.32;5.32;;;11.90;67.10;;;;;;5034223;28;20493;-74
2022/04/30 02:49:21;;;;;;;9.90;4.90;;;11.80;67.20;;;;;;5042797;28;20028;-75
2022/04/30 02:51:48;;;;;;;5.85;5.13;;;11.90;67.30;;;;;;5017990;28;20041;-74
2022/04/30 02:54:15;;;;;;;7.22;5.47;;;11.80;67.40;;;;;;5006522;28;20094;-73
2022/04/30 02:56:40;;;;;;;6.40;5.35;;;11.80;67.40;;;;;;5032847;28;20378;-73
2022/04/30 03:01:50;;;;;;;8.80;5.43;;;11.80;67.60;;;;;;5041146;28;20048;-74
2022/04/30 03:04:16;;;;;;;13.27;6.20;;;11.80;67.70;;;;;;5034692;28;20021;-74
2022/04/30 03:06:41;;;;;;;13.15;5.60;;;11.80;67.80;;;;;;5061517;28;20486;-73
2022/04/30 03:09:07;;;;;;;9.85;5.68;;;11.80;67.90;;;;;;5026129;28;20106;-73
2022/04/30 03:11:32;;;;;;;11.63;5.95;;;11.80;68.00;;;;;;5043016;28;20041;-73
2022/04/30 03:13:58;;;;;;;11.10;6.50;;;11.80;68.00;;;;;;5061249;28;20036;-75
2022/04/30 03:21:52;;;;;;;7.25;5.80;;;11.80;68.00;;;;;;5035998;28;20040;-74
2022/04/30 03:24:18;;;;;;;9.48;5.72;;;11.80;68.10;;;;;;5041679;28;20507;-73
2022/04/30 03:26:47;;;;;;;9.13;5.65;;;11.80;68.30;;;;;;5015639;28;20040;-73
2022/04/30 03:29:12;;;;;;;8.15;5.80;;;11.80;68.60;;;;;;5059360;28;20549;-73
2022/04/30 03:31:39;;;;;;;8.75;5.70;;;11.70;68.50;;;;;;4989904;28;20493;-73
2022/04/30 03:34:06;;;;;;;10.35;6.30;;;11.70;68.60;;;;;;5002012;28;20116;-74
2022/04/30 03:36:33;;;;;;;10.55;6.57;;;11.70;68.70;;;;;;5056455;28;20080;-73
2022/04/30 03:38:58;;;;;;;10.73;6.30;;;11.70;68.60;;;;;;5041902;28;20074;-73
2022/04/30 03:41:24;;;;;;;9.73;6.25;;;11.70;68.80;;;;;;5034306;28;20060;-73
2022/04/30 03:43:50;;;;;;;15.52;6.53;;;11.70;69.00;;;;;;5016035;28;20036;-73
2022/04/30 03:46:17;;;;;;;10.70;6.35;;;11.70;69.00;;;;;;5018308;28;20044;-73
2022/04/30 03:48:42;;;;;;;10.98;6.10;;;11.70;69.10;;;;;;5009964;28;20075;-73
2022/04/30 03:51:08;;;;;;;14.55;7.22;;;11.70;69.20;;;;;;4993056;28;20049;-73
2022/04/30 03:53:34;;;;;;;11.00;5.43;;;11.70;69.30;;;;;;5020305;28;20128;-73
2022/04/30 03:56:00;;;;;;;10.07;5.90;;;11.70;69.30;;;;;;5035611;28;20029;-73
2022/04/30 03:58:27;;;;;;;10.30;5.60;;;11.70;69.30;;;;;;5021769;28;20029;-73
2022/04/30 04:00:53;;;;;;;12.55;5.45;;;11.70;69.40;;;;;;5045327;28;20041;-74
2022/04/30 04:03:19;;;;;;;9.90;6.60;;;11.70;69.30;;;;;;5003717;28;20045;-73
2022/04/30 04:05:48;;;;;;;10.38;5.70;;;11.60;69.40;;;;;;5025121;28;20040;-73
2022/04/30 04:08:14;;;;;;;9.18;6.10;;;11.60;69.50;;;;;;5041974;28;20099;-73
2022/04/30 04:10:41;;;;;;;9.57;5.72;;;11.60;69.50;;;;;;5042275;28;20110;-73
2022/04/30 04:18:35;;;;;;;10.07;5.25;;;11.60;69.50;;;;;;5040832;28;20047;-73
2022/04/30 04:21:02;;;;;;;6.60;4.90;;;11.60;69.40;;;;;;5060748;28;20500;-74
2022/04/30 04:23:27;;;;;;;7.60;4.82;;;11.60;69.50;;;;;;5035403;28;20533;-74
2022/04/30 04:26:00;;;;;;;10.60;5.10;;;11.60;69.40;;;;;;5063159;28;20040;-73
2022/04/30 04:28:28;;;;;;;7.95;5.28;;;11.60;70.20;;;;;;5021893;28;20099;-73
2022/04/30 04:30:53;;;;;;;7.78;5.47;;;11.60;69.40;;;;;;5047087;28;20044;-73
2022/04/30 04:33:19;;;;;;;9.15;4.78;;;11.60;69.60;;;;;;5050097;28;20515;-74
2022/04/30 04:35:44;;;;;;;7.95;5.10;;;11.60;69.60;;;;;;5023025;28;20052;-73
2022/04/30 04:38:10;;;;;;;13.65;5.97;;;11.60;69.60;;;;;;5044654;28;20394;-75
2022/04/30 04:40:35;;;;;;;11.68;6.03;;;11.60;69.60;;;;;;5029002;28;20524;-73
2022/04/30 04:43:01;;;;;;;8.60;5.47;;;11.60;69.50;;;;;;5022131;28;20323;-75
2022/04/30 04:45:27;;;;;;;10.85;6.60;;;11.60;69.60;;;;;;5031939;28;20037;-74
2022/04/30 04:47:52;;;;;;;7.28;5.35;;;11.60;69.60;;;;;;5032269;28;20033;-73
2022/04/30 04:50:18;;;;;;;11.80;5.85;;;11.50;69.60;;;;;;5048133;28;20061;-74
2022/04/30 04:52:44;;;;;;;8.65;4.93;;;11.50;69.50;;;;;;5040693;28;20032;-73
2022/04/30 04:55:10;;;;;;;10.93;5.65;;;11.50;69.60;;;;;;5066229;28;20025;-73
2022/04/30 04:57:36;;;;;;;8.75;5.30;;;11.50;69.60;;;;;;5030815;28;20516;-75
2022/04/30 05:00:03;;;;;;;11.40;6.13;;;11.50;69.60;;;;;;5050536;28;20111;-76
2022/04/30 05:02:28;;;;;;;8.00;5.47;;;11.50;69.60;;;;;;5026848;28;20087;-75
2022/04/30 05:04:54;;;;;;;8.88;5.68;;;11.50;69.60;;;;;;5052244;28;20025;-72
2022/04/30 05:07:20;;;;;;;12.05;5.68;;;11.50;69.60;;;;;;5043521;28;20032;-73
2022/04/30 05:09:45;;;;;;;10.05;5.97;;;11.50;69.60;;;;;;5055155;28;20128;-73
2022/04/30 05:12:12;;;;;;;13.13;5.53;;;11.50;69.50;;;;;;5024607;28;20538;-72
2022/04/30 05:14:37;;;;;;;10.82;5.95;;;11.50;69.50;;;;;;5023364;28;20033;-73
2022/04/30 05:17:04;;;;;;;9.57;7.05;;;11.50;69.50;;;;;;5049588;28;20090;-73
2022/04/30 05:19:30;;;;;;;7.32;5.13;;;11.50;69.60;;;;;;5028768;28;20082;-72
2022/04/30 05:21:56;;;;;;;12.20;5.70;;;11.50;69.60;;;;;;5028791;28;20037;-72
2022/04/30 05:24:21;;;;;;;11.05;5.35;;;11.60;69.60;;;;;;5013815;28;20029;-73
2022/04/30 05:26:47;;;;;;;8.63;5.45;;;11.60;69.70;;;;;;5047950;28;20025;-73
2022/04/30 05:29:16;;;;;;;7.85;5.50;;;11.60;69.70;;;;;;5048587;28;20525;-72
2022/04/30 05:31:41;;;;;;;7.97;5.43;;;11.60;69.60;;;;;;5044007;28;20884;-74
2022/04/30 05:34:07;;;;;;;7.60;5.22;;;11.60;69.70;;;;;;5034911;28;20115;-73
2022/04/30 05:36:32;;;;;;;10.38;6.10;;;11.60;69.60;;;;;;5032722;28;20055;-73
2022/04/30 05:38:59;;;;;;;8.13;5.93;;;11.60;69.60;;;;;;5060679;28;21062;-74
2022/04/30 05:41:25;;;;;;;11.30;5.95;;;11.70;69.60;;;;;;5040902;28;20031;-73
2022/04/30 05:43:50;;;;;;;11.65;6.63;;;11.70;69.60;;;;;;5044371;28;20052;-72
2022/04/30 05:46:16;;;;;;;11.13;5.30;;;11.70;69.60;;;;;;5024955;28;20033;-72
2022/04/30 05:48:41;;;;;;;9.95;6.35;;;11.70;69.40;;;;;;5033663;28;20060;-73
2022/04/30 05:51:07;;;;;;;10.85;5.75;;;11.70;69.30;;;;;;5044143;28;20048;-72
2022/04/30 05:53:32;;;;;;;9.10;6.13;;;11.70;69.40;;;;;;5035111;28;20136;-73
2022/04/30 05:55:58;;;;;;;9.40;5.45;;;11.80;69.50;;;;;;5053180;28;20630;-73
2022/04/30 05:58:24;;;;;;;10.63;6.03;;;11.80;69.40;;;;;;5062246;28;20504;-73
2022/04/30 06:00:49;;;;;;;8.80;6.00;;;11.80;69.30;;;;;;5037531;28;20052;-72
2022/04/30 06:03:15;;;;;;;10.55;6.28;;;11.80;69.30;;;;;;5039284;28;20044;-73
2022/04/30 06:05:41;;;;;;;9.50;6.22;;;11.80;69.20;;;;;;5025513;28;20044;-73
2022/04/30 06:08:07;;;;;;;8.88;6.30;;;11.80;69.20;;;;;;5060193;28;20040;-73
2022/04/30 06:10:32;;;;;;;9.85;5.72;;;11.90;69.20;;;;;;5040146;28;20608;-73
2022/04/30 06:12:58;;;;;;;9.15;4.93;;;11.90;69.10;;;;;;5002460;28;20036;-73
2022/04/30 06:15:23;;;;;;;9.48;5.80;;;11.90;69.00;;;;;;5026760;28;20033;-74
2022/04/30 06:17:49;;;;;;;9.27;5.68;;;12.00;69.10;;;;;;5051734;28;20033;-73
2022/04/30 06:20:14;;;;;;;8.43;5.63;;;12.00;69.00;;;;;;5031671;28;20107;-73
2022/04/30 06:22:40;;;;;;;9.52;6.20;;;12.00;69.00;;;;;;5012777;28;20033;-73
2022/04/30 06:25:06;;;;;;;16.48;6.45;;;12.10;69.00;;;;;;5012106;28;20047;-73
2022/04/30 06:27:32;;;;;;;11.02;6.10;;;12.10;68.90;;;;;;5027042;28;20033;-73
2022/04/30 06:29:59;;;;;;;11.15;6.57;;;12.10;68.80;;;;;;5038639;28;20040;-73
2022/04/30 06:32:24;;;;;;;8.50;5.97;;;12.10;68.80;;;;;;4999813;28;20462;-74
2022/04/30 06:34:50;;;;;;;8.77;6.25;;;12.20;68.80;;;;;;5022325;28;20067;-73
2022/04/30 06:37:17;;;;;;;8.25;5.68;;;12.20;68.70;;;;;;5047308;28;20048;-73
2022/04/30 06:39:43;;;;;;;10.93;6.05;;;12.20;68.60;;;;;;5007949;28;20419;-73
2022/04/30 06:42:08;;;;;;;6.50;5.40;;;12.30;68.60;;;;;;5029018;28;20136;-73
2022/04/30 06:44:34;;;;;;;10.73;6.65;;;12.30;68.50;;;;;;4993594;28;20039;-73
2022/04/30 06:46:59;;;;;;;7.22;5.50;;;12.30;68.50;;;;;;5021767;28;20139;-73
2022/04/30 06:49:25;;;;;;;9.07;5.63;;;12.40;68.50;;;;;;5035436;28;20060;-72
2022/04/30 06:51:50;;;;;;;7.35;5.88;;;12.40;68.60;;;;;;4998474;28;20117;-72
2022/04/30 06:57:16;;;;;;;11.10;6.38;;;12.50;68.60;;;;;;5008160;28;20447;-73
2022/04/30 06:59:41;;;;;;;8.80;5.90;;;12.60;68.70;;;;;;5026756;28;20052;-72
2022/04/30 07:02:17;;;;;;;10.75;5.35;;;12.60;68.50;;;;;;5023024;28;20064;-73
2022/04/30 07:04:43;;;;;;;12.63;6.15;;;12.70;68.70;;;;;;5014858;28;20456;-72
2022/04/30 07:07:09;;;;;;;8.00;5.85;;;12.80;68.60;;;;;;4996491;28;20051;-73
2022/04/30 07:09:35;;;;;;;10.73;6.75;;;12.80;68.60;;;;;;5014370;28;20134;-72
2022/04/30 07:12:09;;;;;;;11.25;6.80;;;12.90;68.60;;;;;;5025893;28;20485;-72
2022/04/30 07:14:36;;;;;;;10.40;6.20;;;13.00;68.80;;;;;;5009715;28;20037;-73
2022/04/30 07:17:12;;;;;;;9.88;7.45;;;13.10;68.80;;;;;;5042169;28;20710;-72
2022/04/30 07:19:38;;;;;;;7.95;5.50;;;13.10;68.70;;;;;;5024876;28;20045;-73
2022/04/30 07:22:04;;;;;;;10.20;6.63;;;13.20;68.50;;;;;;5011422;28;20051;-74
2022/04/30 07:24:31;;;;;;;13.00;6.88;;;13.30;68.50;;;;;;4999741;28;20038;-73
2022/04/30 07:26:56;;;;;;;12.00;6.15;;;13.40;68.40;;;;;;5012037;28;20037;-72
2022/04/30 07:29:22;;;;;;;9.32;6.65;;;13.40;68.20;;;;;;5018751;28;20039;-72
2022/04/30 07:31:47;;;;;;;9.68;6.45;;;13.50;68.20;;;;;;5037907;28;20263;-72
2022/04/30 07:34:13;;;;;;;19.73;6.43;;;13.60;68.90;;;;;;5011803;28;21191;-72
2022/04/30 07:36:39;;;;;;;12.75;6.95;;;13.60;67.90;;;;;;5022761;28;20516;-73
2022/04/30 07:39:04;;;;;;;11.82;7.13;;;13.70;67.90;;;;;;5022564;28;20124;-73
2022/04/30 07:41:30;;;;;;;13.02;5.53;;;13.70;67.70;;;;;;5007314;28;20076;-73
2022/04/30 07:43:55;;;;;;;11.85;5.75;;;13.70;67.60;;;;;;4974218;28;20060;-72
2022/04/30 07:46:24;;;;;;;12.30;6.63;;;13.80;67.60;;;;;;5004972;28;20034;-72
2022/04/30 07:48:50;;;;;;;11.82;6.20;;;13.90;67.40;;;;;;5027244;28;20099;-73
2022/04/30 07:51:23;;;;;;;10.90;6.63;;;13.90;67.20;;;;;;5005191;28;20041;-73
2022/04/30 07:53:49;;;;;;;8.25;6.85;;;13.90;67.00;;;;;;5007323;28;20065;-73
2022/04/30 07:56:15;;;;;;;9.70;5.55;;;13.90;67.00;;;;;;5011010;28;20099;-74
2022/04/30 07:58:40;;;;;;;9.50;6.10;;;13.90;66.90;;;;;;5006839;28;20021;-73
2022/04/30 08:01:06;;;;;;;8.70;6.22;;;14.00;66.90;;;;;;5009505;28;20160;-73
2022/04/30 08:03:32;;;;;;;12.15;6.28;;;14.00;67.00;;;;;;4991898;28;20820;-73
2022/04/30 08:05:58;;;;;;;8.98;6.03;;;14.00;66.70;;;;;;5007517;28;20030;-72
2022/04/30 08:08:23;;;;;;;9.55;6.22;;;14.00;66.50;;;;;;4986801;28;20390;-73
2022/04/30 08:10:49;;;;;;;13.40;5.47;;;14.10;66.60;;;;;;4986073;28;20037;-73
2022/04/30 08:13:14;;;;;;;13.05;6.25;;;14.10;66.50;;;;;;5029548;28;20055;-72
2022/04/30 08:15:43;;;;;;;9.77;5.57;;;14.20;66.40;;;;;;5007923;28;20025;-73
2022/04/30 08:18:09;;;;;;;9.80;6.30;;;14.30;66.40;;;;;;5023436;28;20095;-75
2022/04/30 08:20:37;;;;;;;10.02;6.38;;;14.30;66.30;;;;;;5027229;28;20021;-74
2022/04/30 08:23:06;;;;;;;11.02;6.38;;;14.30;66.20;;;;;;4996012;28;20024;-74
2022/04/30 08:25:33;;;;;;;8.50;5.97;;;14.40;66.20;;;;;;5007760;28;20064;-72
2022/04/30 08:27:58;;;;;;;12.15;6.43;;;14.40;66.10;;;;;;4976217;28;20029;-72
2022/04/30 08:30:24;;;;;;;11.65;5.80;;;14.50;66.10;;;;;;5019448;28;20441;-72
2022/04/30 08:32:50;;;;;;;7.55;5.20;;;14.60;66.10;;;;;;4999360;28;20037;-72
2022/04/30 08:35:15;;;;;;;6.43;5.38;;;14.80;66.10;;;;;;4998360;28;20041;-71
2022/04/30 08:37:41;;;;;;;11.25;5.20;;;14.90;65.80;;;;;;5037416;28;20382;-72
2022/04/30 08:40:07;;;;;;;10.70;6.03;;;15.00;65.60;;;;;;5024260;28;20052;-72
2022/04/30 08:42:33;;;;;;;6.80;5.07;;;15.10;65.30;;;;;;5041378;28;20037;-73
2022/04/30 08:45:02;;;;;;;8.65;6.13;;;15.20;65.10;;;;;;5022586;28;20033;-73
2022/04/30 08:47:29;;;;;;;10.23;6.55;;;15.30;64.80;;;;;;5017563;28;20029;-72
2022/04/30 08:49:54;;;;;;;10.07;6.63;;;15.40;64.70;;;;;;5019470;28;20029;-72
2022/04/30 08:52:20;;;;;;;11.43;5.28;;;15.60;65.30;;;;;;5024063;28;20064;-71
2022/04/30 08:54:46;;;;;;;6.95;4.80;;;15.70;64.30;;;;;;5013979;28;20080;-72
2022/04/30 08:57:11;;;;;;;9.70;5.72;;;15.80;64.10;;;;;;5038041;28;20036;-71
2022/04/30 08:59:37;;;;;;;7.53;6.15;;;15.80;63.90;;;;;;5024091;28;20037;-72
2022/04/30 09:02:08;;;;;;;9.95;5.80;;;16.00;64.00;;;;;;5038438;28;20033;-72
2022/04/30 09:04:44;;;;;;;6.40;5.05;;;16.10;63.60;;;;;;5010309;28;20420;-72
2022/04/30 09:07:14;;;;;;;12.27;6.25;;;16.20;64.10;;;;;;5017726;28;20540;-72
2022/04/30 09:09:40;;;;;;;8.80;6.68;;;16.40;63.00;;;;;;4998175;28;20095;-73
2022/04/30 09:12:14;;;;;;;10.77;5.72;;;16.50;62.70;;;;;;5027047;28;20072;-73
2022/04/30 09:14:40;;;;;;;10.43;5.50;;;16.70;62.10;;;;;;5024480;28;20111;-72
2022/04/30 09:17:10;;;;;;;9.13;6.22;;;16.70;62.20;;;;;;5040117;28;20037;-72
2022/04/30 09:19:55;;;;;;;6.82;4.75;;;16.80;62.00;;;;;;5010720;28;20029;-72
2022/04/30 09:22:33;;;;;;;8.77;5.75;;;16.90;61.80;;;;;;5039454;28;20060;-72
2022/04/30 09:24:59;;;;;;;9.75;6.13;;;17.00;61.20;;;;;;5033334;28;20041;-74
2022/04/30 09:27:25;;;;;;;6.07;4.93;;;17.10;61.20;;;;;;5022144;28;20158;-74
2022/04/30 09:29:51;;;;;;;10.07;6.45;;;17.10;61.00;;;;;;5008607;28;20489;-73
2022/04/30 09:32:20;;;;;;;10.13;5.88;;;17.20;61.00;;;;;;5023209;28;20068;-75
2022/04/30 09:37:43;;;;;;;11.60;6.60;;;17.40;60.60;;;;;;5020543;28;20061;-74
2022/04/30 09:40:14;;;;;;;5.90;4.38;;;17.50;60.20;;;;;;4991962;28;20040;-75
2022/04/30 09:42:40;;;;;;;;;;;17.60;60.00;;;;;;5040808;28;20060;-74
2022/04/30 09:45:07;;;;;;;8.30;5.07;;;17.60;60.00;;;;;;5040590;28;19913;-74
2022/04/30 09:47:33;;;;;;;5.97;5.22;;;17.60;59.90;;;;;;5014411;28;20199;-74
2022/04/30 09:55:42;;;;;;;8.15;5.13;;;18.10;59.40;;;;;;5009406;28;20047;-75
2022/04/30 09:58:07;;;;;;;9.93;5.65;;;18.30;59.60;;;;;;5001058;28;20037;-74
2022/04/30 10:00:33;;;;;;;8.88;5.45;;;18.50;58.90;;;;;;4973866;28;20041;-73
2022/04/30 10:03:02;;;;;;;6.97;5.50;;;18.60;58.60;;;;;;5015367;28;20033;-74
2022/04/30 10:05:29;;;;;;;13.50;6.20;;;18.80;58.20;;;;;;4990186;28;20037;-74
2022/04/30 10:07:55;;;;;;;9.43;6.13;;;19.00;58.50;;;;;;5009731;28;20056;-74
2022/04/30 10:10:50;;;;;;;5.85;5.15;;;19.10;57.60;;;;;;4988994;28;20029;-74
2022/04/30 10:13:24;;;;;;;6.78;4.93;;;19.20;56.90;;;;;;5012868;28;20044;-75
2022/04/30 10:15:52;;;;;;;5.82;4.65;;;19.30;57.00;;;;;;5010782;28;20040;-74
2022/04/30 10:18:19;;;;;;;6.03;4.40;;;19.40;57.00;;;;;;5001512;28;20094;-74
2022/04/30 10:20:51;;;;;;;6.43;5.10;;;19.60;56.90;;;;;;5041394;28;20034;-74
2022/04/30 10:23:16;;;;;;;6.55;4.82;;;19.80;56.40;;;;;;5012294;28;20030;-74
2022/04/30 10:25:48;;;;;;;6.53;4.45;;;19.90;56.40;;;;;;4995992;28;20041;-73
2022/04/30 10:28:16;;;;;;;;;;;20.00;56.10;;;;;;4992478;28;20037;-74
2022/04/30 10:30:43;;;;;;;7.88;4.82;;;20.20;56.10;;;;;;5024476;28;19913;-75
2022/04/30 10:33:08;;;;;;;9.60;4.28;;;20.40;56.00;;;;;;5007744;28;20740;-75
2022/04/30 10:35:38;;;;;;;5.95;4.93;;;20.50;55.70;;;;;;4991730;28;20112;-72
2022/04/30 10:38:20;;;;;;;5.28;4.60;;;20.80;55.30;;;;;;5057453;28;20037;-73
2022/04/30 10:40:48;;;;;;;6.32;5.05;;;21.00;54.80;;;;;;5032145;28;20455;-76
2022/04/30 10:43:31;;;;;;;5.55;4.40;;;21.10;54.70;;;;;;5043964;28;20045;-76
2022/04/30 10:45:56;;;;;;;5.65;4.70;;;21.30;54.20;;;;;;5019804;28;20031;-71
2022/04/30 10:48:22;;;;;;;5.18;4.45;;;21.40;54.00;;;;;;5037240;28;20766;-73
2022/04/30 10:51:07;;;;;;;6.00;4.70;;;21.60;53.80;;;;;;5026343;28;20094;-73
2022/04/30 10:53:33;;;;;;;6.05;4.45;;;21.70;52.80;;;;;;5024982;28;20041;-73
2022/04/30 10:56:03;;;;;;;8.30;4.50;;;21.80;53.00;;;;;;5025850;28;20032;-73
2022/04/30 10:58:30;;;;;;;5.35;4.43;;;21.90;52.70;;;;;;5021215;28;20418;-73
2022/04/30 11:00:56;;;;;;;7.60;4.97;;;22.00;52.50;;;;;;5042389;28;20086;-73
2022/04/30 11:03:27;;;;;;;7.88;5.38;;;22.10;52.20;;;;;;5009563;28;20033;-73
2022/04/30 11:05:53;;;;;;;8.10;4.95;;;22.20;51.80;;;;;;5030665;28;20043;-74
2022/04/30 11:08:19;;;;;;;6.13;4.95;;;22.20;51.80;;;;;;5039583;28;20128;-74
2022/04/30 11:10:51;;;;;;;8.20;5.45;;;22.30;51.60;;;;;;5055955;28;20087;-73
2022/04/30 11:13:17;;;;;;;8.35;4.40;;;22.40;51.00;;;;;;5029638;28;20098;-74
2022/04/30 11:15:43;;;;;;;6.70;4.85;;;22.40;51.10;;;;;;4998607;28;20493;-74
2022/04/30 11:18:08;;;;;;;5.50;4.68;;;22.40;50.90;;;;;;5040059;28;20025;-70
2022/04/30 11:20:34;;;;;;;4.65;3.83;;;22.50;50.70;;;;;;5023595;28;20067;-71
2022/04/30 11:23:02;;;;;;;6.22;4.40;;;22.50;50.60;;;;;;5056961;28;20033;-71
2022/04/30 11:25:37;;;;;;;7.65;4.55;;;22.50;50.60;;;;;;5007534;28;20107;-71
2022/04/30 11:28:09;;;;;;;6.00;4.43;;;22.50;50.20;;;;;;5017264;28;20057;-71
2022/04/30 11:30:41;;;;;;;7.63;5.07;;;22.50;50.90;;;;;;4999701;28;20658;-75
2022/04/30 11:33:06;;;;;;;5.97;4.60;;;22.50;50.00;;;;;;5039644;28;20026;-74
2022/04/30 11:35:32;;;;;;;7.18;5.03;;;22.50;49.90;;;;;;5041827;28;20362;-73
2022/04/30 11:37:57;;;;;;;8.55;5.75;;;22.50;49.80;;;;;;5035180;28;20040;-74
2022/04/30 11:40:24;;;;;;;7.13;5.28;;;22.50;49.60;;;;;;5017554;28;20140;-73
2022/04/30 11:42:59;;;;;;;6.43;4.13;;;22.50;49.20;;;;;;5035191;28;20142;-73
2022/04/30 11:45:29;;;;;;;8.50;5.10;;;22.50;49.10;;;;;;5027685;28;20061;-74
2022/04/30 11:47:56;;;;;;;5.82;4.63;;;22.50;49.10;;;;;;5023051;28;23767;-74
2022/04/30 11:50:21;;;;;;;7.10;4.93;;;22.50;49.10;;;;;;5034948;28;20036;-74
2022/04/30 11:52:47;;;;;;;5.65;4.22;;;22.50;49.10;;;;;;5032219;28;20036;-76
2022/04/30 11:55:13;;;;;;;6.75;4.07;;;22.50;48.90;;;;;;5032499;28;20044;-74
2022/04/30 11:57:42;;;;;;;8.88;5.20;;;22.50;49.00;;;;;;5008818;28;20076;-75
2022/04/30 12:00:12;;;;;;;5.03;4.15;;;22.50;48.70;;;;;;5045205;28;20029;-73
2022/04/30 12:02:42;;;;;;;5.40;3.97;;;22.40;48.60;;;;;;5009357;28;20545;-74
2022/04/30 12:05:07;;;;;;;8.05;4.40;;;22.30;48.70;;;;;;5000020;28;20075;-74
2022/04/30 12:07:36;;;;;;;9.30;4.00;;;22.40;48.90;;;;;;5002632;28;20135;-74
2022/04/30 12:10:02;;;;;;;7.28;4.75;;;22.30;48.80;;;;;;5036537;28;20544;-72
2022/04/30 12:12:28;;;;;;;9.15;4.47;;;22.30;48.80;;;;;;5041278;28;20049;-73
2022/04/30 12:14:55;;;;;;;4.85;4.30;;;22.40;48.80;;;;;;5043330;28;20135;-74
2022/04/30 12:17:32;;;;;;;6.20;4.60;;;22.30;48.70;;;;;;5059950;28;20033;-74
2022/04/30 12:25:33;;;;;;;5.18;4.53;;;22.30;48.70;;;;;;5017147;28;19927;-73
2022/04/30 12:27:59;;;;;;;6.38;5.28;;;22.30;48.70;;;;;;5009419;28;20405;-73
2022/04/30 12:30:26;;;;;;;5.35;4.25;;;22.20;48.50;;;;;;5039758;28;20041;-75
2022/04/30 12:32:52;;;;;;;8.48;4.40;;;22.10;48.40;;;;;;5035240;28;20075;-73
2022/04/30 12:35:24;;;;;;;7.07;4.50;;;22.10;48.40;;;;;;5034386;28;20472;-73
2022/04/30 12:38:00;;;;;;;5.22;3.80;;;22.00;48.20;;;;;;5023470;28;20110;-74
2022/04/30 12:40:26;;;;;;;6.90;4.60;;;22.00;48.40;;;;;;5004606;28;20032;-74
2022/04/30 12:42:51;;;;;;;5.20;4.20;;;22.00;48.40;;;;;;5020252;28;20033;-74
2022/04/30 12:45:17;;;;;;;5.35;3.88;;;22.00;48.20;;;;;;5056685;28;20035;-73
2022/04/30 12:47:42;;;;;;;4.55;4.13;;;21.90;48.20;;;;;;5016733;28;20090;-73
2022/04/30 12:50:08;;;;;;;6.38;3.97;;;21.90;48.30;;;;;;5024809;28;20042;-73
2022/04/30 12:52:33;;;;;;;5.22;4.28;;;22.00;48.40;;;;;;5057882;28;20505;-74
2022/04/30 12:54:59;;;;;;;5.63;3.50;;;21.90;48.50;;;;;;5016257;28;20045;-73
2022/04/30 12:57:25;;;;;;;6.50;4.78;;;21.90;48.60;;;;;;5037944;28;20033;-75
2022/04/30 12:59:53;;;;;;;8.27;4.97;;;21.90;48.60;;;;;;5029850;28;20045;-74
2022/04/30 13:02:22;;;;;;;5.65;4.45;;;21.90;48.60;;;;;;5022308;28;20392;-73
2022/04/30 13:04:51;;;;;;;5.55;3.97;;;21.80;48.50;;;;;;5024615;28;20069;-73
2022/04/30 13:07:17;;;;;;;5.10;4.10;;;21.80;48.60;;;;;;5023273;28;20036;-74
2022/04/30 13:15:11;;;;;;;9.57;5.50;;;21.60;48.70;;;;;;5045089;28;20036;-74
2022/04/30 13:17:38;;;;;;;7.13;5.05;;;21.50;48.80;;;;;;5041038;28;20032;-74
2022/04/30 13:20:04;;;;;;;7.13;4.97;;;21.40;48.90;;;;;;5043867;28;20083;-73
2022/04/30 13:22:30;;;;;;;6.35;4.90;;;21.30;49.00;;;;;;5029205;28;20041;-75
2022/04/30 13:24:55;;;;;;;8.10;4.53;;;21.20;49.20;;;;;;5023289;28;20044;-73
2022/04/30 13:27:21;;;;;;;6.55;4.65;;;21.10;49.40;;;;;;5040158;28;21392;-73
2022/04/30 13:29:46;;;;;;;9.55;5.40;;;21.00;49.60;;;;;;5056884;28;20033;-73